LSZALFLB

Guest
Details From LSZA - Lugano
To LFLB - Aix-Les-Bains
Flight Number -
Tags generated
Created
Modified
Stats Distance 129 nm / 238 km
Max Altitude 16,000 ft / 4,877 m
Waypoints 3
Social Downloads 2
Likes 0
Share VATSIM

Download

Looking for another format? Having issues loading an existing format? Contact us
Advertisement - Login to hide

Notes

Basic altitude profile: - Ascent Rate: 2500ft/min - Ascent Speed: 250kts - Cruise Altitude: 35000ft - Cruise Speed: 420kts - Descent Rate: 1500ft/min - Descent Speed: 250kts

Route

LSZA GARLO LFLB

ID Type Via Altitude Latitude Longitude Leg Dist Tot Dist Heading (true) Name
O LSZA APT - 0 ft / 0 m 46.00427˚ 8.91058˚ - 0 nm - Lugano
GARLO FIX - 16,000 ft / 4,877 m 45.87444˚ 7.75028˚ 49 nm 49 nm 261° / 260° -
O LFLB APT - 0 ft / 0 m 45.63623˚ 5.88090˚ 79 nm 128 nm 260° / 259° Aix-Les-Bains

Altitude Profile

Advertisement - Login to hide

LSZA

Details ICAO LSZA (LUG)
Name Lugano
Region Switzerland
Timezone Europe/Zurich (UTC+2.0)
Stats Elevation 915 ft / 279 m (AMSL)
Location 46.004275° 8.910579°
Runways 1
Magnetic Variation 2.476° E

METAR

LSZA 271820Z VRB04KT 9999 VCTS FEW045CB SCT080 SCT160 22/17 Q1017 TEMPO SHRA

Decode

TAF

Not found

Departure Runways

ID Width Length Bearing (true) Bearing (mag) Surface Threshold Offset Overrun Length
01 98 ft / 30 m 4,430 ft / 1,350 m 18.79° 16.31° Asphalt 361 ft / 110 m 0 ft / 0 m
19 98 ft / 30 m 4,430 ft / 1,350 m 198.79° 196.31° Asphalt 673 ft / 205 m 0 ft / 0 m

LFLB

Details ICAO LFLB (CMF)
Name Aix-Les-Bains
Region France
Timezone Europe/Paris (UTC+2.0)
Stats Elevation 779 ft / 237 m (AMSL)
Location 45.636234° 5.880898°
Runways 2
Magnetic Variation 1.744° E

METAR

LFLB 271830Z AUTO 20004KT 180V240 9999 ///TCU 17/15 Q1018 TEMPO 4500 SHRA FEW050CB BKN055TCU BECMG 34012KT

Decode

TAF

TAF AMD LFLB 271358Z 2713/2812 34012KT 9999 SCT055TCU TEMPO 2715/2720 4500 SHRA FEW050CB BKN055TCU PROB40 TEMPO 2715/2719 VRB25G40KT 2900 TSRA BKN030CB PROB30 TEMPO 2715/2718 VRB25G40KT 1400 TSGR OVC030CB BECMG 2721/2723 VRB02KT CAVOK BECMG 2810/2812 SCT055TCU

Decode

Destination Runways

ID Width Length Bearing (true) Bearing (mag) Surface Threshold Offset Overrun Length
18 148 ft / 45 m 5,452 ft / 1,662 m 176.72° 174.98° Asphalt 26 ft / 8 m 774 ft / 236 m
18L 197 ft / 60 m 2,309 ft / 704 m 176.70° 174.96° Grass 0 ft / 0 m 0 ft / 0 m
36 148 ft / 45 m 5,452 ft / 1,662 m 356.72° 354.98° Asphalt 23 ft / 7 m 456 ft / 139 m
36R 197 ft / 60 m 2,309 ft / 704 m 356.70° 354.96° Grass 315 ft / 96 m 0 ft / 0 m

Approach Navaids

Runway Type Ident Frequency Range Bearing (true) Bearing (mag) Slope Elevation
18 Localiser CY 109.50 MHz 27 nm / 50 km 176.73° 174.99° - 779 ft / 237 m (AMSL)
18 Glidescope CY 109.50 MHz 27 nm / 50 km 176.73° 174.99° 4.46° 779 ft / 237 m (AMSL)
18 DME CY 109.50 MHz 27 nm / 50 km - - - 779 ft / 237 m (AMSL)